Terminal Aerodrome Forecast
Issued by NWS

Home | Current Version | Previous Version | Text Only | Print | Product List | Glossary On
Versions: 1 2 3 4 5 6 7 8 9 10 11 12
553
FTUS45 KMSO 260520
TAFSMN
TAF
KSMN 260520Z 2606/2706 32005KT P6SM SKC
     FM270300 25010G18KT P6SM VCSH SCT060 SCT100
      AMD LTD TO CLD VIS AND WIND=

USA.gov is the U.S. government's official web portal to all federal, state and local government web resources and services.